Superfast Xii — SYCD — position and weather

sailwx.info

Track history (hours):
 
Tides and Currents Weather Stations Pressure Air Temp Water Temp Dewpoint Dewpoint Depression Visibility Wind Speed Wind Dir Waves Ship Positions

Superfast Xii

Last reported at 2018-Feb-21 23:35 UTC. Time now 2018-Feb-22 19:26 UTC.
Position N 37°18' E 025°53'.

Length 200 m; draft 6.5 m.

Type: Passenger vessel. MMSI: 239919000.

Date/timePositionNaut miles runAvg speedWind from/ knotsBaromVisibWave heightAir tempDewpointWater temp
2018-Feb-21 23:35N 37°18' E 025°53'221.1
2018-Feb-21 23:30N 37°18' E 025°51'1319.7
2018-Feb-21 22:50N 37°20' E 025°35'619.8
2018-Feb-21 22:30N 37°20' E 025°27'1019.6
2018-Feb-21 22:00N 37°21' E 025°14'1019.7
2018-Feb-21 21:30N 37°25' E 025°03'5 9.9
2018-Feb-21 20:59N 37°26' E 024°57'3417.7
2018-Feb-21 19:04N 37°31' E 024°14'1022.9
2018-Feb-21 18:38N 37°34' E 024°02'822.7
2018-Feb-21 18:18N 37°36' E 023°53'722.9
2018-Feb-21 18:01N 37°39' E 023°45'1122.7
2018-Feb-21 17:31N 37°48' E 023°37'815.0
2018-Feb-21 16:58N 37°56' E 023°37'0 0.0
2018-Feb-21 16:25N 37°56' E 023°37'0 0.0
2018-Feb-21 15:58N 37°56' E 023°37'0 0.0
2018-Feb-21 15:28N 37°56' E 023°37'0 0.0
2018-Feb-21 14:55N 37°56' E 023°37'0 0.0
2018-Feb-21 14:28N 37°56' E 023°37'0 0.0
2018-Feb-21 13:58N 37°56' E 023°37'0 0.0
2018-Feb-21 13:28N 37°56' E 023°37'0 0.0
2018-Feb-21 12:55N 37°56' E 023°37'0 0.0
2018-Feb-21 12:28N 37°56' E 023°37'0 0.0
2018-Feb-21 11:58N 37°56' E 023°37'0 0.0
2018-Feb-21 11:28N 37°56' E 023°37'0 0.0
2018-Feb-21 10:58N 37°56' E 023°37'0 0.0
2018-Feb-21 10:31N 37°56' E 023°37'0 0.0
2018-Feb-21 09:57N 37°56' E 023°37'0 0.0
2018-Feb-21 09:24N 37°56' E 023°37'0 0.0
2018-Feb-21 09:00N 37°56' E 023°37'0 0.0
2018-Feb-21 08:30N 37°56' E 023°37'0 0.0
2018-Feb-21 08:00N 37°56' E 023°37'0 0.0
2018-Feb-21 07:30N 37°56' E 023°37'0 0.0
2018-Feb-21 06:59N 37°56' E 023°37'0 0.0
2018-Feb-21 06:29N 37°56' E 023°37'1 2.3
2018-Feb-21 06:00N 37°55' E 023°37'1019.1
2018-Feb-21 05:31N 37°47' E 023°42'918.3
2018-Feb-21 05:01N 37°39' E 023°49'4618.8
2018-Feb-21 02:32N 37°24' E 024°44'119.4
2018-Feb-21 02:31N 37°23' E 024°45'918.8
2018-Feb-21 02:01N 37°20' E 024°56'1019.0
2018-Feb-21 01:30N 37°20' E 025°08'1019.3
2018-Feb-21 01:01N 37°19' E 025°20'1019.0
2018-Feb-21 00:30N 37°18' E 025°32'1019.9
2018-Feb-21 00:00N 37°17' E 025°44'7 0.4
2018-Feb-20 04:08N 37°18' E 025°53'323.3
2018-Feb-20 04:00N 37°18' E 025°50'1223.6
2018-Feb-20 03:30N 37°20' E 025°34'1223.4
2018-Feb-20 03:00N 37°21' E 025°20'1019.6
2018-Feb-20 02:30N 37°23' E 025°08'1018.1
2018-Feb-20 01:58N 37°26' E 024°57'2 4.1
2018-Feb-20 01:31N 37°28' E 024°58'1121.4
2018-Feb-20 01:01N 37°32' E 024°45'2523.1
2018-Feb-19 23:57N 37°31' E 024°14'1023.7
2018-Feb-19 23:31N 37°34' E 024°02'1223.7
2018-Feb-19 23:01N 37°38' E 023°48'1122.7
2018-Feb-19 22:31N 37°46' E 023°39'1020.0
2018-Feb-19 22:00N 37°56' E 023°37'0 0.0
2018-Feb-19 21:22N 37°56' E 023°37'0 0.0
2018-Feb-19 20:58N 37°56' E 023°37'0 0.0
2018-Feb-19 20:28N 37°56' E 023°37'0 0.0
2018-Feb-19 19:58N 37°56' E 023°37'1 2.6
2018-Feb-19 19:31N 37°55' E 023°37'1224.1
2018-Feb-19 19:01N 37°44' E 023°43'5022.8
2018-Feb-19 16:50N 37°32' E 024°44'1023.5
2018-Feb-19 16:26N 37°31' E 024°56'4 8.5
2018-Feb-19 15:55N 37°26' E 024°57'615.9
2018-Feb-19 15:30N 37°24' E 025°04'1223.3
2018-Feb-19 15:01N 37°21' E 025°18'1223.7
2018-Feb-19 14:31N 37°20' E 025°33'1223.6
2018-Feb-19 14:01N 37°18' E 025°48'  
2018-Feb-16 23:30N 37°19' E 025°54'1323.0
2018-Feb-16 22:55N 37°20' E 025°37'922.9
2018-Feb-16 22:31N 37°20' E 025°25'1223.0
2018-Feb-16 22:01N 37°22' E 025°11'1122.8
2018-Feb-16 21:30N 37°26' E 024°58'1 1.8
2018-Feb-16 21:00N 37°26' E 024°57'815.7
2018-Feb-16 20:30N 37°33' E 024°50'2922.6
2018-Feb-16 19:13N 37°31' E 024°14'723.3
2018-Feb-16 18:55N 37°33' E 024°05'1123.2
2018-Feb-16 18:27N 37°37' E 023°52'1022.9
2018-Feb-16 18:00N 37°41' E 023°41'1223.5
2018-Feb-16 17:31N 37°52' E 023°37'4 7.8
2018-Feb-16 17:00N 37°56' E 023°37'0 0.0
2018-Feb-16 16:24N 37°56' E 023°37'0 0.0
2018-Feb-16 16:00N 37°56' E 023°37'0 0.0
2018-Feb-16 15:30N 37°56' E 023°37'0 0.0
2018-Feb-16 15:00N 37°56' E 023°37'0 0.0
2018-Feb-16 14:29N 37°56' E 023°37'0 0.0
2018-Feb-16 13:59N 37°56' E 023°37'0 0.0
2018-Feb-16 13:29N 37°56' E 023°37'0 0.0
2018-Feb-16 12:59N 37°56' E 023°37'0 0.0
2018-Feb-16 12:29N 37°56' E 023°37'0 0.0
2018-Feb-16 11:59N 37°56' E 023°37'0 0.0
2018-Feb-16 11:29N 37°56' E 023°37'0 0.0
2018-Feb-16 10:59N 37°56' E 023°37'0 0.0
2018-Feb-16 10:29N 37°56' E 023°37'0 0.0
2018-Feb-16 09:59N 37°56' E 023°37'0 0.0
2018-Feb-16 09:29N 37°56' E 023°37'0 0.0
2018-Feb-16 08:56N 37°56' E 023°37'0 0.0
2018-Feb-16 08:29N 37°56' E 023°37'0 0.0
2018-Feb-16 07:59N 37°56' E 023°37'0 0.0
2018-Feb-16 07:29N 37°56' E 023°37'0 0.0
2018-Feb-16 06:59N 37°56' E 023°37'0 0.0
2018-Feb-16 06:29N 37°56' E 023°37'1 2.4
2018-Feb-16 06:00N 37°55' E 023°37'1122.1
2018-Feb-16 05:30N 37°45' E 023°43'5321.9
2018-Feb-16 03:05N 37°23' E 024°44'223.0
2018-Feb-16 03:01N 37°23' E 024°46'1122.5
2018-Feb-16 02:30N 37°20' E 024°59'1122.7
2018-Feb-16 02:00N 37°19' E 025°14'1224.5
2018-Feb-16 01:30N 37°19' E 025°29'1325.8
2018-Feb-16 01:01N 37°17' E 025°45'6 0.3
2018-Feb-14 23:27N 37°18' E 025°53'1522.2
2018-Feb-14 22:46N 37°19' E 025°34'622.4
2018-Feb-14 22:31N 37°20' E 025°27'1020.0
2018-Feb-14 22:01N 37°21' E 025°15'1020.5
2018-Feb-14 21:30N 37°25' E 025°03'5 9.4
2018-Feb-14 20:58N 37°26' E 024°57'713.5
2018-Feb-14 20:29N 37°32' E 024°52'4522.7
2018-Feb-14 18:31N 37°35' E 023°56'123.2
2018-Feb-14 18:30N 37°35' E 023°55'1123.0
2018-Feb-14 18:01N 37°40' E 023°43'1223.2
2018-Feb-14 17:30N 37°51' E 023°37'6 3.0
2018-Feb-14 15:36N 37°56' E 023°37'0 0.1
2018-Feb-14 15:30N 37°56' E 023°37'0 0.0
2018-Feb-14 15:00N 37°56' E 023°37'0 0.0
2018-Feb-14 14:30N 37°56' E 023°37'0 0.0
2018-Feb-14 14:00N 37°56' E 023°37'0 0.0
2018-Feb-14 13:29N 37°56' E 023°37'0 0.0
2018-Feb-14 12:59N 37°56' E 023°37'0 0.0
2018-Feb-14 12:29N 37°56' E 023°37'0 0.0
2018-Feb-14 11:59N 37°56' E 023°37'0 0.0
2018-Feb-14 11:29N 37°56' E 023°37'0 0.0
2018-Feb-14 10:59N 37°56' E 023°37'0 0.0
2018-Feb-14 10:29N 37°56' E 023°37'0 0.0
2018-Feb-14 09:59N 37°56' E 023°37'0 0.0
2018-Feb-14 09:29N 37°56' E 023°37'0 0.0
2018-Feb-14 08:56N 37°56' E 023°37'0 0.0
2018-Feb-14 08:29N 37°56' E 023°37'0 0.0
2018-Feb-14 07:59N 37°56' E 023°37'0 0.0
2018-Feb-14 07:29N 37°56' E 023°37'0 0.0
2018-Feb-14 06:59N 37°56' E 023°37'0 0.0
2018-Feb-14 06:29N 37°56' E 023°37'0 0.9
2018-Feb-14 06:01N 37°56' E 023°37'918.5
2018-Feb-14 05:30N 37°48' E 023°42'918.7
2018-Feb-14 05:00N 37°40' E 023°48'4718.5
2018-Feb-14 02:27N 37°24' E 024°44'818.9
2018-Feb-14 02:00N 37°21' E 024°54'918.1
2018-Feb-14 01:30N 37°20' E 025°05'1020.8
2018-Feb-14 01:00N 37°19' E 025°18'1121.2
2018-Feb-14 00:30N 37°18' E 025°31'1121.6
2018-Feb-14 00:00N 37°17' E 025°45'7 0.3
2018-Feb-12 23:36N 37°18' E 025°53'219.9
2018-Feb-12 23:30N 37°18' E 025°51'1120.0
2018-Feb-12 22:56N 37°19' E 025°37'920.2
2018-Feb-12 22:30N 37°20' E 025°26'1020.2
2018-Feb-12 22:00N 37°21' E 025°13'1120.8
2018-Feb-12 21:29N 37°26' E 025°01'3 6.9
2018-Feb-12 21:00N 37°26' E 024°57'714.8
2018-Feb-12 20:30N 37°32' E 024°51'2823.3
2018-Feb-12 19:19N 37°29' E 024°16'1723.1
2018-Feb-12 18:34N 37°36' E 023°55'323.8
2018-Feb-12 18:28N 37°37' E 023°52'1022.7
2018-Feb-12 18:01N 37°42' E 023°41'1223.0
2018-Feb-12 17:31N 37°53' E 023°37'3 6.4
2018-Feb-12 16:58N 37°56' E 023°37'0 0.0
2018-Feb-12 16:28N 37°56' E 023°37'0 0.0
2018-Feb-12 15:58N 37°56' E 023°37'0 0.0
2018-Feb-12 15:16N 37°56' E 023°37'0 0.0
2018-Feb-12 15:01N 37°56' E 023°37'0 0.0
2018-Feb-12 14:30N 37°56' E 023°37'0 0.0
2018-Feb-12 14:00N 37°56' E 023°37'0 0.0
2018-Feb-12 13:30N 37°56' E 023°37'0 0.0
2018-Feb-12 13:00N 37°56' E 023°37'0 0.0
2018-Feb-12 12:30N 37°56' E 023°37'0 0.0
2018-Feb-12 12:00N 37°56' E 023°37'0 0.0
2018-Feb-12 11:30N 37°56' E 023°37'0 0.0
2018-Feb-12 11:00N 37°56' E 023°37'0 0.0
2018-Feb-12 10:30N 37°56' E 023°37'0 0.0
2018-Feb-12 10:00N 37°56' E 023°37'0 0.0
2018-Feb-12 09:30N 37°56' E 023°37'0 0.0
2018-Feb-12 09:00N 37°56' E 023°37'0 0.0
2018-Feb-12 08:27N 37°56' E 023°37'0 0.0
2018-Feb-12 08:00N 37°56' E 023°37'0 0.0
2018-Feb-12 07:30N 37°56' E 023°37'0 0.0
2018-Feb-12 07:00N 37°56' E 023°37'0 0.0
2018-Feb-12 06:30N 37°56' E 023°37'0 0.4
2018-Feb-12 06:00N 37°56' E 023°37'1121.3
2018-Feb-12 05:30N 37°46' E 023°42'5121.8
2018-Feb-12 03:10N 37°31' E 024°44'423.1
2018-Feb-12 03:01N 37°32' E 024°48'918.0
2018-Feb-12 02:31N 37°26' E 024°57'4 7.6
2018-Feb-12 02:00N 37°25' E 025°02'1122.5
2018-Feb-12 01:30N 37°21' E 025°15'1122.4
2018-Feb-12 01:00N 37°20' E 025°29'1122.6
2018-Feb-12 00:30N 37°19' E 025°43'  
Track history (hours):
 
Tides and Currents Weather Stations Pressure Air Temp Water Temp Dewpoint Dewpoint Depression Visibility Wind Speed Wind Dir Waves Ship Positions

Superfast Xii

Last reported at 2018-Feb-21 23:35 UTC. Time now 2018-Feb-22 19:26 UTC.
Position N 37°18' E 025°53'.

Length 200 m; draft 6.5 m.

Type: Passenger vessel. MMSI: 239919000.

Date/timePositionNaut miles runAvg speedWind from/ knotsBaromVisibWave heightAir tempDewpointWater temp
2018-Feb-21 23:35N 37°18' E 025°53'221.1
2018-Feb-21 23:30N 37°18' E 025°51'1319.7
2018-Feb-21 22:50N 37°20' E 025°35'619.8
2018-Feb-21 22:30N 37°20' E 025°27'1019.6
2018-Feb-21 22:00N 37°21' E 025°14'1019.7
2018-Feb-21 21:30N 37°25' E 025°03'5 9.9
2018-Feb-21 20:59N 37°26' E 024°57'3417.7
2018-Feb-21 19:04N 37°31' E 024°14'1022.9
2018-Feb-21 18:38N 37°34' E 024°02'822.7
2018-Feb-21 18:18N 37°36' E 023°53'722.9
2018-Feb-21 18:01N 37°39' E 023°45'1122.7
2018-Feb-21 17:31N 37°48' E 023°37'815.0
2018-Feb-21 16:58N 37°56' E 023°37'0 0.0
2018-Feb-21 16:25N 37°56' E 023°37'0 0.0
2018-Feb-21 15:58N 37°56' E 023°37'0 0.0
2018-Feb-21 15:28N 37°56' E 023°37'0 0.0
2018-Feb-21 14:55N 37°56' E 023°37'0 0.0
2018-Feb-21 14:28N 37°56' E 023°37'0 0.0
2018-Feb-21 13:58N 37°56' E 023°37'0 0.0
2018-Feb-21 13:28N 37°56' E 023°37'0 0.0
2018-Feb-21 12:55N 37°56' E 023°37'0 0.0
2018-Feb-21 12:28N 37°56' E 023°37'0 0.0
2018-Feb-21 11:58N 37°56' E 023°37'0 0.0
2018-Feb-21 11:28N 37°56' E 023°37'0 0.0
2018-Feb-21 10:58N 37°56' E 023°37'0 0.0
2018-Feb-21 10:31N 37°56' E 023°37'0 0.0
2018-Feb-21 09:57N 37°56' E 023°37'0 0.0
2018-Feb-21 09:24N 37°56' E 023°37'0 0.0
2018-Feb-21 09:00N 37°56' E 023°37'0 0.0
2018-Feb-21 08:30N 37°56' E 023°37'0 0.0
2018-Feb-21 08:00N 37°56' E 023°37'0 0.0
2018-Feb-21 07:30N 37°56' E 023°37'0 0.0
2018-Feb-21 06:59N 37°56' E 023°37'0 0.0
2018-Feb-21 06:29N 37°56' E 023°37'1 2.3
2018-Feb-21 06:00N 37°55' E 023°37'1019.1
2018-Feb-21 05:31N 37°47' E 023°42'918.3
2018-Feb-21 05:01N 37°39' E 023°49'4618.8
2018-Feb-21 02:32N 37°24' E 024°44'119.4
2018-Feb-21 02:31N 37°23' E 024°45'918.8
2018-Feb-21 02:01N 37°20' E 024°56'1019.0
2018-Feb-21 01:30N 37°20' E 025°08'1019.3
2018-Feb-21 01:01N 37°19' E 025°20'1019.0
2018-Feb-21 00:30N 37°18' E 025°32'1019.9
2018-Feb-21 00:00N 37°17' E 025°44'7 0.4
2018-Feb-20 04:08N 37°18' E 025°53'323.3
2018-Feb-20 04:00N 37°18' E 025°50'1223.6
2018-Feb-20 03:30N 37°20' E 025°34'1223.4
2018-Feb-20 03:00N 37°21' E 025°20'1019.6
2018-Feb-20 02:30N 37°23' E 025°08'1018.1
2018-Feb-20 01:58N 37°26' E 024°57'2 4.1
2018-Feb-20 01:31N 37°28' E 024°58'1121.4
2018-Feb-20 01:01N 37°32' E 024°45'2523.1
2018-Feb-19 23:57N 37°31' E 024°14'1023.7
2018-Feb-19 23:31N 37°34' E 024°02'1223.7
2018-Feb-19 23:01N 37°38' E 023°48'1122.7
2018-Feb-19 22:31N 37°46' E 023°39'1020.0
2018-Feb-19 22:00N 37°56' E 023°37'0 0.0
2018-Feb-19 21:22N 37°56' E 023°37'0 0.0
2018-Feb-19 20:58N 37°56' E 023°37'0 0.0
2018-Feb-19 20:28N 37°56' E 023°37'0 0.0
2018-Feb-19 19:58N 37°56' E 023°37'1 2.6
2018-Feb-19 19:31N 37°55' E 023°37'1224.1
2018-Feb-19 19:01N 37°44' E 023°43'5022.8
2018-Feb-19 16:50N 37°32' E 024°44'1023.5
2018-Feb-19 16:26N 37°31' E 024°56'4 8.5
2018-Feb-19 15:55N 37°26' E 024°57'615.9
2018-Feb-19 15:30N 37°24' E 025°04'1223.3
2018-Feb-19 15:01N 37°21' E 025°18'1223.7
2018-Feb-19 14:31N 37°20' E 025°33'1223.6
2018-Feb-19 14:01N 37°18' E 025°48'  
2018-Feb-16 23:30N 37°19' E 025°54'1323.0
2018-Feb-16 22:55N 37°20' E 025°37'922.9
2018-Feb-16 22:31N 37°20' E 025°25'1223.0
2018-Feb-16 22:01N 37°22' E 025°11'1122.8
2018-Feb-16 21:30N 37°26' E 024°58'1 1.8
2018-Feb-16 21:00N 37°26' E 024°57'815.7
2018-Feb-16 20:30N 37°33' E 024°50'2922.6
2018-Feb-16 19:13N 37°31' E 024°14'723.3
2018-Feb-16 18:55N 37°33' E 024°05'1123.2
2018-Feb-16 18:27N 37°37' E 023°52'1022.9
2018-Feb-16 18:00N 37°41' E 023°41'1223.5
2018-Feb-16 17:31N 37°52' E 023°37'4 7.8
2018-Feb-16 17:00N 37°56' E 023°37'0 0.0
2018-Feb-16 16:24N 37°56' E 023°37'0 0.0
2018-Feb-16 16:00N 37°56' E 023°37'0 0.0
2018-Feb-16 15:30N 37°56' E 023°37'0 0.0
2018-Feb-16 15:00N 37°56' E 023°37'0 0.0
2018-Feb-16 14:29N 37°56' E 023°37'0 0.0
2018-Feb-16 13:59N 37°56' E 023°37'0 0.0
2018-Feb-16 13:29N 37°56' E 023°37'0 0.0
2018-Feb-16 12:59N 37°56' E 023°37'0 0.0
2018-Feb-16 12:29N 37°56' E 023°37'0 0.0
2018-Feb-16 11:59N 37°56' E 023°37'0 0.0
2018-Feb-16 11:29N 37°56' E 023°37'0 0.0
2018-Feb-16 10:59N 37°56' E 023°37'0 0.0
2018-Feb-16 10:29N 37°56' E 023°37'0 0.0
2018-Feb-16 09:59N 37°56' E 023°37'0 0.0
2018-Feb-16 09:29N 37°56' E 023°37'0 0.0
2018-Feb-16 08:56N 37°56' E 023°37'0 0.0
2018-Feb-16 08:29N 37°56' E 023°37'0 0.0
2018-Feb-16 07:59N 37°56' E 023°37'0 0.0
2018-Feb-16 07:29N 37°56' E 023°37'0 0.0
2018-Feb-16 06:59N 37°56' E 023°37'0 0.0
2018-Feb-16 06:29N 37°56' E 023°37'1 2.4
2018-Feb-16 06:00N 37°55' E 023°37'1122.1
2018-Feb-16 05:30N 37°45' E 023°43'5321.9
2018-Feb-16 03:05N 37°23' E 024°44'223.0
2018-Feb-16 03:01N 37°23' E 024°46'1122.5
2018-Feb-16 02:30N 37°20' E 024°59'1122.7
2018-Feb-16 02:00N 37°19' E 025°14'1224.5
2018-Feb-16 01:30N 37°19' E 025°29'1325.8
2018-Feb-16 01:01N 37°17' E 025°45'6 0.3
2018-Feb-14 23:27N 37°18' E 025°53'1522.2
2018-Feb-14 22:46N 37°19' E 025°34'622.4
2018-Feb-14 22:31N 37°20' E 025°27'1020.0
2018-Feb-14 22:01N 37°21' E 025°15'1020.5
2018-Feb-14 21:30N 37°25' E 025°03'5 9.4
2018-Feb-14 20:58N 37°26' E 024°57'713.5
2018-Feb-14 20:29N 37°32' E 024°52'4522.7
2018-Feb-14 18:31N 37°35' E 023°56'123.2
2018-Feb-14 18:30N 37°35' E 023°55'1123.0
2018-Feb-14 18:01N 37°40' E 023°43'1223.2
2018-Feb-14 17:30N 37°51' E 023°37'6 3.0
2018-Feb-14 15:36N 37°56' E 023°37'0 0.1
2018-Feb-14 15:30N 37°56' E 023°37'0 0.0
2018-Feb-14 15:00N 37°56' E 023°37'0 0.0
2018-Feb-14 14:30N 37°56' E 023°37'0 0.0
2018-Feb-14 14:00N 37°56' E 023°37'0 0.0
2018-Feb-14 13:29N 37°56' E 023°37'0 0.0
2018-Feb-14 12:59N 37°56' E 023°37'0 0.0
2018-Feb-14 12:29N 37°56' E 023°37'0 0.0
2018-Feb-14 11:59N 37°56' E 023°37'0 0.0
2018-Feb-14 11:29N 37°56' E 023°37'0 0.0
2018-Feb-14 10:59N 37°56' E 023°37'0 0.0
2018-Feb-14 10:29N 37°56' E 023°37'0 0.0
2018-Feb-14 09:59N 37°56' E 023°37'0 0.0
2018-Feb-14 09:29N 37°56' E 023°37'0 0.0
2018-Feb-14 08:56N 37°56' E 023°37'0 0.0
2018-Feb-14 08:29N 37°56' E 023°37'0 0.0
2018-Feb-14 07:59N 37°56' E 023°37'0 0.0
2018-Feb-14 07:29N 37°56' E 023°37'0 0.0
2018-Feb-14 06:59N 37°56' E 023°37'0 0.0
2018-Feb-14 06:29N 37°56' E 023°37'0 0.9
2018-Feb-14 06:01N 37°56' E 023°37'918.5
2018-Feb-14 05:30N 37°48' E 023°42'918.7
2018-Feb-14 05:00N 37°40' E 023°48'4718.5
2018-Feb-14 02:27N 37°24' E 024°44'818.9
2018-Feb-14 02:00N 37°21' E 024°54'918.1
2018-Feb-14 01:30N 37°20' E 025°05'1020.8
2018-Feb-14 01:00N 37°19' E 025°18'1121.2
2018-Feb-14 00:30N 37°18' E 025°31'1121.6
2018-Feb-14 00:00N 37°17' E 025°45'7 0.3
2018-Feb-12 23:36N 37°18' E 025°53'219.9
2018-Feb-12 23:30N 37°18' E 025°51'1120.0
2018-Feb-12 22:56N 37°19' E 025°37'920.2
2018-Feb-12 22:30N 37°20' E 025°26'1020.2
2018-Feb-12 22:00N 37°21' E 025°13'1120.8
2018-Feb-12 21:29N 37°26' E 025°01'3 6.9
2018-Feb-12 21:00N 37°26' E 024°57'714.8
2018-Feb-12 20:30N 37°32' E 024°51'2823.3
2018-Feb-12 19:19N 37°29' E 024°16'1723.1
2018-Feb-12 18:34N 37°36' E 023°55'323.8
2018-Feb-12 18:28N 37°37' E 023°52'1022.7
2018-Feb-12 18:01N 37°42' E 023°41'1223.0
2018-Feb-12 17:31N 37°53' E 023°37'3 6.4
2018-Feb-12 16:58N 37°56' E 023°37'0 0.0
2018-Feb-12 16:28N 37°56' E 023°37'0 0.0
2018-Feb-12 15:58N 37°56' E 023°37'0 0.0
2018-Feb-12 15:16N 37°56' E 023°37'0 0.0
2018-Feb-12 15:01N 37°56' E 023°37'0 0.0
2018-Feb-12 14:30N 37°56' E 023°37'0 0.0
2018-Feb-12 14:00N 37°56' E 023°37'0 0.0
2018-Feb-12 13:30N 37°56' E 023°37'0 0.0
2018-Feb-12 13:00N 37°56' E 023°37'0 0.0
2018-Feb-12 12:30N 37°56' E 023°37'0 0.0
2018-Feb-12 12:00N 37°56' E 023°37'0 0.0
2018-Feb-12 11:30N 37°56' E 023°37'0 0.0
2018-Feb-12 11:00N 37°56' E 023°37'0 0.0
2018-Feb-12 10:30N 37°56' E 023°37'0 0.0
2018-Feb-12 10:00N 37°56' E 023°37'0 0.0
2018-Feb-12 09:30N 37°56' E 023°37'0 0.0
2018-Feb-12 09:00N 37°56' E 023°37'0 0.0
2018-Feb-12 08:27N 37°56' E 023°37'0 0.0
2018-Feb-12 08:00N 37°56' E 023°37'0 0.0
2018-Feb-12 07:30N 37°56' E 023°37'0 0.0
2018-Feb-12 07:00N 37°56' E 023°37'0 0.0
2018-Feb-12 06:30N 37°56' E 023°37'0 0.4
2018-Feb-12 06:00N 37°56' E 023°37'1121.3
2018-Feb-12 05:30N 37°46' E 023°42'5121.8
2018-Feb-12 03:10N 37°31' E 024°44'423.1
2018-Feb-12 03:01N 37°32' E 024°48'918.0
2018-Feb-12 02:31N 37°26' E 024°57'4 7.6
2018-Feb-12 02:00N 37°25' E 025°02'1122.5
2018-Feb-12 01:30N 37°21' E 025°15'1122.4
2018-Feb-12 01:00N 37°20' E 025°29'1122.6
2018-Feb-12 00:30N 37°19' E 025°43'  

Dump ship's entire track history